sensor_id;sensor_type;location;lat;lon;timestamp;pressure;altitude;pressure_sealevel;temperature;humidity
22651;BME280;11492;42.646;23.400;2023-04-27T00:01:38;94748.31;;;9.43;50.52
22651;BME280;11492;42.646;23.400;2023-04-27T00:04:03;94741.38;;;9.43;50.64
22651;BME280;11492;42.646;23.400;2023-04-27T00:06:29;94733.25;;;9.46;50.39
22651;BME280;11492;42.646;23.400;2023-04-27T00:08:56;94740.56;;;9.43;49.87
22651;BME280;11492;42.646;23.400;2023-04-27T00:11:22;94742.44;;;9.48;50.23
22651;BME280;11492;42.646;23.400;2023-04-27T00:13:47;94736.13;;;9.37;50.38
22651;BME280;11492;42.646;23.400;2023-04-27T00:16:12;94750.94;;;9.35;50.42
22651;BME280;11492;42.646;23.400;2023-04-27T00:18:38;94750.16;;;9.34;49.99
22651;BME280;11492;42.646;23.400;2023-04-27T00:21:03;94752.53;;;9.36;50.69
22651;BME280;11492;42.646;23.400;2023-04-27T00:23:29;94756.63;;;9.30;50.48
22651;BME280;11492;42.646;23.400;2023-04-27T00:25:54;94760.91;;;9.23;50.88
22651;BME280;11492;42.646;23.400;2023-04-27T00:28:20;94752.69;;;8.92;50.82
22651;BME280;11492;42.646;23.400;2023-04-27T00:30:45;94743.81;;;8.80;51.04
22651;BME280;11492;42.646;23.400;2023-04-27T00:33:10;94762.47;;;8.96;51.06
22651;BME280;11492;42.646;23.400;2023-04-27T00:35:36;94760.31;;;8.85;51.23
22651;BME280;11492;42.646;23.400;2023-04-27T00:38:01;94758.91;;;8.97;50.71
22651;BME280;11492;42.646;23.400;2023-04-27T00:40:27;94749.50;;;9.04;50.91
22651;BME280;11492;42.646;23.400;2023-04-27T00:42:52;94755.72;;;9.09;51.23
22651;BME280;11492;42.646;23.400;2023-04-27T00:45:18;94759.38;;;9.00;50.42
22651;BME280;11492;42.646;23.400;2023-04-27T00:47:43;94763.91;;;9.13;51.13
22651;BME280;11492;42.646;23.400;2023-04-27T00:50:09;94764.44;;;9.08;50.52
22651;BME280;11492;42.646;23.400;2023-04-27T00:52:36;94765.41;;;9.07;51.06
22651;BME280;11492;42.646;23.400;2023-04-27T00:55:03;94766.84;;;8.96;50.10
22651;BME280;11492;42.646;23.400;2023-04-27T00:57:29;94763.34;;;8.89;50.56
22651;BME280;11492;42.646;23.400;2023-04-27T00:59:55;94761.56;;;8.89;51.04
22651;BME280;11492;42.646;23.400;2023-04-27T01:02:21;94766.88;;;8.88;51.00
22651;BME280;11492;42.646;23.400;2023-04-27T01:04:47;94769.78;;;8.85;51.01
22651;BME280;11492;42.646;23.400;2023-04-27T01:07:15;94773.47;;;8.90;50.81
22651;BME280;11492;42.646;23.400;2023-04-27T01:09:41;94775.88;;;8.92;51.07
22651;BME280;11492;42.646;23.400;2023-04-27T01:12:06;94770.44;;;8.87;50.99
22651;BME280;11492;42.646;23.400;2023-04-27T01:14:32;94774.94;;;8.85;51.14
22651;BME280;11492;42.646;23.400;2023-04-27T01:16:58;94772.56;;;8.83;51.69
22651;BME280;11492;42.646;23.400;2023-04-27T01:19:23;94778.19;;;8.65;50.85
22651;BME280;11492;42.646;23.400;2023-04-27T01:21:49;94780.53;;;8.52;51.82
22651;BME280;11492;42.646;23.400;2023-04-27T01:24:14;94778.13;;;8.50;51.11
22651;BME280;11492;42.646;23.400;2023-04-27T01:26:40;94782.41;;;8.36;51.69
22651;BME280;11492;42.646;23.400;2023-04-27T01:29:06;94779.75;;;8.29;51.81
22651;BME280;11492;42.646;23.400;2023-04-27T01:31:31;94777.16;;;8.29;51.89
22651;BME280;11492;42.646;23.400;2023-04-27T01:33:57;94788.03;;;8.39;52.39
22651;BME280;11492;42.646;23.400;2023-04-27T01:36:22;94775.69;;;8.35;52.43
22651;BME280;11492;42.646;23.400;2023-04-27T01:38:47;94787.88;;;8.33;52.45
22651;BME280;11492;42.646;23.400;2023-04-27T01:41:13;94776.22;;;8.22;52.06
22651;BME280;11492;42.646;23.400;2023-04-27T01:43:38;94789.53;;;8.34;53.09
22651;BME280;11492;42.646;23.400;2023-04-27T01:46:08;94789.72;;;8.24;52.29
22651;BME280;11492;42.646;23.400;2023-04-27T01:48:34;94796.41;;;8.03;52.98
22651;BME280;11492;42.646;23.400;2023-04-27T01:51:00;94798.16;;;8.11;52.29
22651;BME280;11492;42.646;23.400;2023-04-27T01:53:26;94797.06;;;8.05;52.92
22651;BME280;11492;42.646;23.400;2023-04-27T01:55:51;94801.72;;;8.10;52.56
22651;BME280;11492;42.646;23.400;2023-04-27T01:58:17;94793.19;;;8.01;51.95
22651;BME280;11492;42.646;23.400;2023-04-27T02:00:42;94795.78;;;8.09;52.83
22651;BME280;11492;42.646;23.400;2023-04-27T02:03:08;94799.97;;;8.02;52.80
22651;BME280;11492;42.646;23.400;2023-04-27T02:05:33;94791.97;;;7.90;52.69
22651;BME280;11492;42.646;23.400;2023-04-27T02:07:58;94792.84;;;7.82;52.91
22651;BME280;11492;42.646;23.400;2023-04-27T02:10:24;94798.28;;;7.79;52.72
22651;BME280;11492;42.646;23.400;2023-04-27T02:12:49;94797.19;;;7.82;52.75
22651;BME280;11492;42.646;23.400;2023-04-27T02:15:15;94804.09;;;7.73;53.01
22651;BME280;11492;42.646;23.400;2023-04-27T02:17:40;94791.56;;;7.78;53.42
22651;BME280;11492;42.646;23.400;2023-04-27T02:20:06;94799.69;;;7.90;53.26
22651;BME280;11492;42.646;23.400;2023-04-27T02:22:33;94794.53;;;7.97;53.52
22651;BME280;11492;42.646;23.400;2023-04-27T02:24:58;94805.94;;;7.95;53.28
22651;BME280;11492;42.646;23.400;2023-04-27T02:27:24;94797.88;;;7.68;52.93
22651;BME280;11492;42.646;23.400;2023-04-27T02:29:50;94801.84;;;7.78;52.73
22651;BME280;11492;42.646;23.400;2023-04-27T02:32:15;94802.44;;;7.88;52.54
22651;BME280;11492;42.646;23.400;2023-04-27T02:34:40;94788.28;;;7.92;52.90
22651;BME280;11492;42.646;23.400;2023-04-27T02:37:06;94797.41;;;7.95;53.27
22651;BME280;11492;42.646;23.400;2023-04-27T02:39:32;94800.97;;;7.94;53.15
22651;BME280;11492;42.646;23.400;2023-04-27T02:41:57;94804.63;;;7.99;53.33
22651;BME280;11492;42.646;23.400;2023-04-27T02:44:23;94803.19;;;8.04;52.68
22651;BME280;11492;42.646;23.400;2023-04-27T02:46:49;94805.81;;;7.81;53.11
22651;BME280;11492;42.646;23.400;2023-04-27T02:49:15;94798.41;;;7.86;52.96
22651;BME280;11492;42.646;23.400;2023-04-27T02:51:41;94794.94;;;7.79;52.09
22651;BME280;11492;42.646;23.400;2023-04-27T02:54:06;94805.25;;;7.71;52.50
22651;BME280;11492;42.646;23.400;2023-04-27T02:56:31;94804.59;;;7.77;52.85
22651;BME280;11492;42.646;23.400;2023-04-27T02:58:57;94804.88;;;7.82;53.17
22651;BME280;11492;42.646;23.400;2023-04-27T03:01:22;94816.41;;;7.86;52.71
22651;BME280;11492;42.646;23.400;2023-04-27T03:03:48;94809.78;;;7.91;52.41
22651;BME280;11492;42.646;23.400;2023-04-27T03:06:13;94817.97;;;7.95;52.81
22651;BME280;11492;42.646;23.400;2023-04-27T03:08:39;94816.09;;;7.81;52.10
22651;BME280;11492;42.646;23.400;2023-04-27T03:11:05;94813.50;;;7.89;52.31
22651;BME280;11492;42.646;23.400;2023-04-27T03:13:30;94828.88;;;7.96;52.32
22651;BME280;11492;42.646;23.400;2023-04-27T03:16:02;94816.22;;;7.95;51.85
22651;BME280;11492;42.646;23.400;2023-04-27T03:18:28;94819.94;;;7.93;51.89
22651;BME280;11492;42.646;23.400;2023-04-27T03:20:53;94816.72;;;7.91;52.15
22651;BME280;11492;42.646;23.400;2023-04-27T03:23:18;94822.81;;;7.90;52.44
22651;BME280;11492;42.646;23.400;2023-04-27T03:25:44;94826.44;;;7.73;51.61
22651;BME280;11492;42.646;23.400;2023-04-27T03:28:09;94836.66;;;7.81;52.28
22651;BME280;11492;42.646;23.400;2023-04-27T03:30:38;94831.56;;;7.65;52.51
22651;BME280;11492;42.646;23.400;2023-04-27T03:33:03;94837.50;;;7.73;52.46
22651;BME280;11492;42.646;23.400;2023-04-27T03:35:28;94845.22;;;7.73;52.25
22651;BME280;11492;42.646;23.400;2023-04-27T03:37:54;94841.25;;;7.55;52.38
22651;BME280;11492;42.646;23.400;2023-04-27T03:40:19;94842.38;;;7.53;52.50
22651;BME280;11492;42.646;23.400;2023-04-27T03:42:45;94842.22;;;7.62;52.09
22651;BME280;11492;42.646;23.400;2023-04-27T03:45:10;94845.94;;;7.52;52.62
22651;BME280;11492;42.646;23.400;2023-04-27T03:47:36;94843.53;;;7.35;52.44
22651;BME280;11492;42.646;23.400;2023-04-27T03:50:01;94845.28;;;7.50;53.38
22651;BME280;11492;42.646;23.400;2023-04-27T03:52:28;94853.44;;;7.61;52.54
22651;BME280;11492;42.646;23.400;2023-04-27T03:54:53;94851.19;;;7.58;52.84
22651;BME280;11492;42.646;23.400;2023-04-27T03:57:18;94856.34;;;7.58;52.46
22651;BME280;11492;42.646;23.400;2023-04-27T03:59:44;94856.34;;;7.58;52.74
22651;BME280;11492;42.646;23.400;2023-04-27T04:02:09;94862.09;;;7.60;52.49
22651;BME280;11492;42.646;23.400;2023-04-27T04:04:35;94876.41;;;7.63;52.23
22651;BME280;11492;42.646;23.400;2023-04-27T04:07:01;94872.72;;;7.57;56.08
22651;BME280;11492;42.646;23.400;2023-04-27T04:09:26;94874.34;;;7.50;51.44
22651;BME280;11492;42.646;23.400;2023-04-27T04:11:52;94881.22;;;7.58;52.28
22651;BME280;11492;42.646;23.400;2023-04-27T04:14:17;94883.13;;;7.64;53.37
22651;BME280;11492;42.646;23.400;2023-04-27T04:16:42;94884.19;;;7.85;52.96
22651;BME280;11492;42.646;23.400;2023-04-27T04:19:08;94884.75;;;8.18;55.23
22651;BME280;11492;42.646;23.400;2023-04-27T04:21:33;94897.97;;;8.37;51.10
22651;BME280;11492;42.646;23.400;2023-04-27T04:23:59;94892.91;;;8.21;50.25
22651;BME280;11492;42.646;23.400;2023-04-27T04:26:24;94892.28;;;8.20;50.28
22651;BME280;11492;42.646;23.400;2023-04-27T04:28:49;94901.03;;;7.95;50.27
22651;BME280;11492;42.646;23.400;2023-04-27T04:31:16;94900.22;;;8.02;50.74
22651;BME280;11492;42.646;23.400;2023-04-27T04:33:42;94896.97;;;8.16;50.36
22651;BME280;11492;42.646;23.400;2023-04-27T04:36:08;94904.22;;;8.13;50.02
22651;BME280;11492;42.646;23.400;2023-04-27T04:38:33;94909.44;;;8.27;50.92
22651;BME280;11492;42.646;23.400;2023-04-27T04:40:59;94907.03;;;8.33;50.97
22651;BME280;11492;42.646;23.400;2023-04-27T04:43:24;94910.16;;;8.43;50.32
22651;BME280;11492;42.646;23.400;2023-04-27T04:45:49;94914.69;;;8.41;49.83
22651;BME280;11492;42.646;23.400;2023-04-27T04:48:15;94904.28;;;8.35;49.71
22651;BME280;11492;42.646;23.400;2023-04-27T04:50:41;94911.75;;;8.14;50.47
22651;BME280;11492;42.646;23.400;2023-04-27T04:53:10;94929.66;;;8.38;49.26
22651;BME280;11492;42.646;23.400;2023-04-27T04:55:35;94918.50;;;8.23;49.49
22651;BME280;11492;42.646;23.400;2023-04-27T04:58:01;94918.31;;;8.24;49.24
22651;BME280;11492;42.646;23.400;2023-04-27T05:00:26;94916.97;;;8.36;49.82
22651;BME280;11492;42.646;23.400;2023-04-27T05:02:52;94931.34;;;8.53;50.23
22651;BME280;11492;42.646;23.400;2023-04-27T05:05:17;94926.66;;;8.56;49.50
22651;BME280;11492;42.646;23.400;2023-04-27T05:07:43;94932.19;;;8.46;49.32
22651;BME280;11492;42.646;23.400;2023-04-27T05:10:08;94941.63;;;8.15;49.66
22651;BME280;11492;42.646;23.400;2023-04-27T05:12:33;94939.34;;;8.28;50.21
22651;BME280;11492;42.646;23.400;2023-04-27T05:14:59;94935.38;;;8.47;50.47
22651;BME280;11492;42.646;23.400;2023-04-27T05:17:25;94950.25;;;8.68;49.78
22651;BME280;11492;42.646;23.400;2023-04-27T05:19:51;94939.34;;;8.66;50.07
22651;BME280;11492;42.646;23.400;2023-04-27T05:22:16;94949.53;;;8.81;49.39
22651;BME280;11492;42.646;23.400;2023-04-27T05:24:41;94945.41;;;8.95;48.81
22651;BME280;11492;42.646;23.400;2023-04-27T05:27:07;94948.75;;;9.03;48.86
22651;BME280;11492;42.646;23.400;2023-04-27T05:29:32;94954.50;;;8.83;48.24
22651;BME280;11492;42.646;23.400;2023-04-27T05:31:58;94955.88;;;8.71;48.56
22651;BME280;11492;42.646;23.400;2023-04-27T05:34:23;94954.63;;;8.89;49.28
22651;BME280;11492;42.646;23.400;2023-04-27T05:36:49;94954.41;;;8.76;48.28
22651;BME280;11492;42.646;23.400;2023-04-27T05:39:14;94954.31;;;8.62;48.21
22651;BME280;11492;42.646;23.400;2023-04-27T05:41:40;94959.34;;;8.78;47.92
22651;BME280;11492;42.646;23.400;2023-04-27T05:44:05;94952.06;;;8.89;48.69
22651;BME280;11492;42.646;23.400;2023-04-27T05:46:32;94953.28;;;9.01;48.33
22651;BME280;11492;42.646;23.400;2023-04-27T05:48:57;94959.84;;;9.03;48.39
22651;BME280;11492;42.646;23.400;2023-04-27T05:51:23;94962.44;;;9.03;47.98
22651;BME280;11492;42.646;23.400;2023-04-27T05:53:49;94955.50;;;8.74;48.79
22651;BME280;11492;42.646;23.400;2023-04-27T05:56:14;94957.78;;;8.99;48.83
22651;BME280;11492;42.646;23.400;2023-04-27T05:58:40;94959.84;;;9.03;48.29
22651;BME280;11492;42.646;23.400;2023-04-27T06:01:06;94947.03;;;8.96;48.66
22651;BME280;11492;42.646;23.400;2023-04-27T06:03:31;94955.88;;;9.01;48.66
22651;BME280;11492;42.646;23.400;2023-04-27T06:05:58;94956.16;;;8.76;48.75
22651;BME280;11492;42.646;23.400;2023-04-27T06:08:24;94965.09;;;8.88;48.16
22651;BME280;11492;42.646;23.400;2023-04-27T06:10:50;94961.84;;;9.16;48.65
22651;BME280;11492;42.646;23.400;2023-04-27T06:13:16;94957.63;;;9.45;48.72
22651;BME280;11492;42.646;23.400;2023-04-27T06:15:42;94960.47;;;9.49;47.33
22651;BME280;11492;42.646;23.400;2023-04-27T06:18:07;94968.78;;;9.59;47.73
22651;BME280;11492;42.646;23.400;2023-04-27T06:20:33;94954.81;;;9.54;46.86
22651;BME280;11492;42.646;23.400;2023-04-27T06:22:59;94951.19;;;9.41;47.65
22651;BME280;11492;42.646;23.400;2023-04-27T06:25:25;94947.59;;;9.49;47.42
22651;BME280;11492;42.646;23.400;2023-04-27T06:27:54;94969.25;;;9.77;46.73
22651;BME280;11492;42.646;23.400;2023-04-27T06:30:21;94965.78;;;9.70;47.20
22651;BME280;11492;42.646;23.400;2023-04-27T06:32:47;94958.66;;;9.72;47.74
22651;BME280;11492;42.646;23.400;2023-04-27T06:35:13;94954.84;;;9.82;47.13
22651;BME280;11492;42.646;23.400;2023-04-27T06:37:38;94952.00;;;9.99;46.92
22651;BME280;11492;42.646;23.400;2023-04-27T06:40:05;94953.44;;;10.30;47.19
22651;BME280;11492;42.646;23.400;2023-04-27T06:42:30;94955.00;;;10.60;47.09
22651;BME280;11492;42.646;23.400;2023-04-27T06:44:56;94950.69;;;10.81;45.78
22651;BME280;11492;42.646;23.400;2023-04-27T06:47:22;94959.28;;;10.67;45.54
22651;BME280;11492;42.646;23.400;2023-04-27T06:49:47;94953.38;;;10.73;45.65
22651;BME280;11492;42.646;23.400;2023-04-27T06:52:13;94952.78;;;10.43;45.21
22651;BME280;11492;42.646;23.400;2023-04-27T06:54:38;94954.44;;;10.78;46.27
22651;BME280;11492;42.646;23.400;2023-04-27T06:57:04;94946.03;;;10.91;45.34
22651;BME280;11492;42.646;23.400;2023-04-27T06:59:30;94950.25;;;11.12;44.61
22651;BME280;11492;42.646;23.400;2023-04-27T07:01:56;94945.19;;;11.04;44.29
22651;BME280;11492;42.646;23.400;2023-04-27T07:04:23;94947.81;;;11.25;43.97
22651;BME280;11492;42.646;23.400;2023-04-27T07:06:48;94950.63;;;11.30;43.97
22651;BME280;11492;42.646;23.400;2023-04-27T07:09:13;94946.78;;;11.05;43.70
22651;BME280;11492;42.646;23.400;2023-04-27T07:11:39;94943.19;;;11.20;44.04
22651;BME280;11492;42.646;23.400;2023-04-27T07:14:05;94948.31;;;11.55;43.91
22651;BME280;11492;42.646;23.400;2023-04-27T07:16:30;94937.84;;;11.43;43.58
22651;BME280;11492;42.646;23.400;2023-04-27T07:18:55;94934.84;;;11.60;43.38
22651;BME280;11492;42.646;23.400;2023-04-27T07:21:21;94936.13;;;11.70;43.76
22651;BME280;11492;42.646;23.400;2023-04-27T07:23:46;94938.94;;;11.75;42.98
22651;BME280;11492;42.646;23.400;2023-04-27T07:26:11;94937.72;;;11.98;43.61
22651;BME280;11492;42.646;23.400;2023-04-27T07:28:37;94929.22;;;12.10;41.88
22651;BME280;11492;42.646;23.400;2023-04-27T07:31:04;94941.28;;;12.24;43.20
22651;BME280;11492;42.646;23.400;2023-04-27T07:33:31;94929.16;;;11.97;41.42
22651;BME280;11492;42.646;23.400;2023-04-27T07:35:57;94921.63;;;12.02;42.11
22651;BME280;11492;42.646;23.400;2023-04-27T07:38:23;94928.75;;;12.27;41.88
22651;BME280;11492;42.646;23.400;2023-04-27T07:40:48;94918.66;;;12.39;41.39
22651;BME280;11492;42.646;23.400;2023-04-27T07:43:14;94919.03;;;12.36;41.67
22651;BME280;11492;42.646;23.400;2023-04-27T07:45:40;94928.28;;;12.51;41.94
22651;BME280;11492;42.646;23.400;2023-04-27T07:48:05;94931.81;;;12.77;41.79
22651;BME280;11492;42.646;23.400;2023-04-27T07:50:31;94929.66;;;12.87;40.77
22651;BME280;11492;42.646;23.400;2023-04-27T07:52:57;94931.69;;;12.97;39.12
22651;BME280;11492;42.646;23.400;2023-04-27T07:55:24;94932.91;;;13.14;39.41
22651;BME280;11492;42.646;23.400;2023-04-27T07:57:51;94927.41;;;13.36;38.53
22651;BME280;11492;42.646;23.400;2023-04-27T08:00:17;94935.00;;;13.63;38.09
22651;BME280;11492;42.646;23.400;2023-04-27T08:02:43;94935.22;;;13.68;37.08
22651;BME280;11492;42.646;23.400;2023-04-27T08:05:08;94920.25;;;13.70;36.49
22651;BME280;11492;42.646;23.400;2023-04-27T08:07:34;94925.03;;;14.11;36.58
22651;BME280;11492;42.646;23.400;2023-04-27T08:09:59;94922.06;;;14.08;36.39
22651;BME280;11492;42.646;23.400;2023-04-27T08:12:25;94927.03;;;14.16;36.70
22651;BME280;11492;42.646;23.400;2023-04-27T08:14:51;94918.75;;;14.57;35.26
22651;BME280;11492;42.646;23.400;2023-04-27T08:17:18;94914.50;;;14.69;34.69
22651;BME280;11492;42.646;23.400;2023-04-27T08:19:43;94927.44;;;14.88;35.69
22651;BME280;11492;42.646;23.400;2023-04-27T08:22:09;94924.38;;;14.47;34.90
22651;BME280;11492;42.646;23.400;2023-04-27T08:24:34;94941.78;;;14.41;34.77
22651;BME280;11492;42.646;23.400;2023-04-27T08:27:00;94931.41;;;14.21;34.52
22651;BME280;11492;42.646;23.400;2023-04-27T08:29:27;94924.78;;;14.51;35.00
22651;BME280;11492;42.646;23.400;2023-04-27T08:31:53;94923.19;;;14.99;34.45
22651;BME280;11492;42.646;23.400;2023-04-27T08:34:18;94931.81;;;14.25;35.69
22651;BME280;11492;42.646;23.400;2023-04-27T08:36:44;94919.44;;;14.21;35.73
22651;BME280;11492;42.646;23.400;2023-04-27T08:39:09;94926.59;;;14.44;36.65
22651;BME280;11492;42.646;23.400;2023-04-27T08:41:35;94931.16;;;14.55;35.75
22651;BME280;11492;42.646;23.400;2023-04-27T08:44:01;94928.91;;;14.71;34.71
22651;BME280;11492;42.646;23.400;2023-04-27T08:46:26;94909.75;;;14.59;35.45
22651;BME280;11492;42.646;23.400;2023-04-27T08:48:53;94915.94;;;14.65;35.19
22651;BME280;11492;42.646;23.400;2023-04-27T08:51:19;94926.91;;;14.67;35.77
22651;BME280;11492;42.646;23.400;2023-04-27T08:53:50;94927.28;;;14.76;35.55
22651;BME280;11492;42.646;23.400;2023-04-27T08:56:17;94923.81;;;14.89;36.36
22651;BME280;11492;42.646;23.400;2023-04-27T08:58:43;94926.00;;;15.04;36.33
22651;BME280;11492;42.646;23.400;2023-04-27T09:01:08;94918.38;;;15.09;36.28
22651;BME280;11492;42.646;23.400;2023-04-27T09:03:34;94930.81;;;14.95;36.17
22651;BME280;11492;42.646;23.400;2023-04-27T09:06:01;94927.22;;;14.89;35.85
22651;BME280;11492;42.646;23.400;2023-04-27T09:08:27;94931.69;;;14.76;35.17
22651;BME280;11492;42.646;23.400;2023-04-27T09:10:53;94915.88;;;14.77;36.78
22651;BME280;11492;42.646;23.400;2023-04-27T09:13:21;94919.16;;;15.10;35.76
22651;BME280;11492;42.646;23.400;2023-04-27T09:15:48;94916.38;;;14.98;35.34
22651;BME280;11492;42.646;23.400;2023-04-27T09:18:20;94916.81;;;14.96;35.26
22651;BME280;11492;42.646;23.400;2023-04-27T09:23:47;94914.22;;;15.63;34.62
22651;BME280;11492;42.646;23.400;2023-04-27T09:26:19;94917.03;;;15.61;33.88
22651;BME280;11492;42.646;23.400;2023-04-27T09:28:47;94906.56;;;16.22;33.46
22651;BME280;11492;42.646;23.400;2023-04-27T09:31:13;94896.38;;;16.14;33.34
22651;BME280;11492;42.646;23.400;2023-04-27T09:33:39;94898.47;;;15.82;33.65
22651;BME280;11492;42.646;23.400;2023-04-27T09:36:05;94896.09;;;15.50;34.23
22651;BME280;11492;42.646;23.400;2023-04-27T09:38:31;94903.09;;;15.19;34.31
22651;BME280;11492;42.646;23.400;2023-04-27T09:40:58;94898.66;;;15.26;34.83
22651;BME280;11492;42.646;23.400;2023-04-27T09:43:24;94896.06;;;14.83;35.52
22651;BME280;11492;42.646;23.400;2023-04-27T09:45:52;94887.19;;;15.03;35.69
22651;BME280;11492;42.646;23.400;2023-04-27T09:48:19;94897.59;;;15.03;35.73
22651;BME280;11492;42.646;23.400;2023-04-27T09:50:45;94889.69;;;15.22;35.80
22651;BME280;11492;42.646;23.400;2023-04-27T09:53:17;94878.75;;;16.16;34.54
22651;BME280;11492;42.646;23.400;2023-04-27T09:58:58;94873.34;;;18.43;31.72
22651;BME280;11492;42.646;23.400;2023-04-27T10:01:46;94879.22;;;17.93;30.56
22651;BME280;11492;42.646;23.400;2023-04-27T10:06:58;94885.72;;;16.75;31.74
22651;BME280;11492;42.646;23.400;2023-04-27T10:09:25;94881.06;;;16.95;32.86
22651;BME280;11492;42.646;23.400;2023-04-27T10:11:52;94869.47;;;16.91;32.29
22651;BME280;11492;42.646;23.400;2023-04-27T10:14:20;94877.75;;;16.70;32.56
22651;BME280;11492;42.646;23.400;2023-04-27T10:16:56;94878.41;;;16.83;32.81
22651;BME280;11492;42.646;23.400;2023-04-27T10:19:23;94870.94;;;17.04;32.42
22651;BME280;11492;42.646;23.400;2023-04-27T10:21:57;94874.69;;;16.91;32.95
22651;BME280;11492;42.646;23.400;2023-04-27T10:24:36;94883.69;;;16.59;32.46
22651;BME280;11492;42.646;23.400;2023-04-27T10:27:07;94882.13;;;16.41;33.59
22651;BME280;11492;42.646;23.400;2023-04-27T10:29:41;94885.72;;;16.40;33.05
22651;BME280;11492;42.646;23.400;2023-04-27T10:32:23;94871.66;;;16.23;32.29
22651;BME280;11492;42.646;23.400;2023-04-27T10:34:51;94881.81;;;16.48;33.08
22651;BME280;11492;42.646;23.400;2023-04-27T10:37:17;94870.16;;;16.51;32.73
22651;BME280;11492;42.646;23.400;2023-04-27T10:39:49;94871.66;;;16.76;32.20
22651;BME280;11492;42.646;23.400;2023-04-27T10:42:26;94874.44;;;16.63;32.29
22651;BME280;11492;42.646;23.400;2023-04-27T10:44:56;94865.66;;;16.75;31.85
22651;BME280;11492;42.646;23.400;2023-04-27T10:47:22;94872.53;;;16.35;32.05
22651;BME280;11492;42.646;23.400;2023-04-27T10:49:51;94867.91;;;16.37;31.84
22651;BME280;11492;42.646;23.400;2023-04-27T10:52:17;94870.22;;;16.62;31.65
22651;BME280;11492;42.646;23.400;2023-04-27T10:54:46;94867.19;;;16.83;32.35
22651;BME280;11492;42.646;23.400;2023-04-27T10:57:11;94866.63;;;16.92;31.27
22651;BME280;11492;42.646;23.400;2023-04-27T10:59:51;94859.63;;;16.75;31.35
22651;BME280;11492;42.646;23.400;2023-04-27T11:02:24;94867.31;;;16.70;32.96
22651;BME280;11492;42.646;23.400;2023-04-27T11:04:50;94869.13;;;16.70;32.78
22651;BME280;11492;42.646;23.400;2023-04-27T11:07:26;94852.78;;;16.03;32.12
22651;BME280;11492;42.646;23.400;2023-04-27T11:09:52;94850.63;;;16.89;33.08
22651;BME280;11492;42.646;23.400;2023-04-27T11:12:18;94862.94;;;17.69;31.33
22651;BME280;11492;42.646;23.400;2023-04-27T11:14:43;94856.13;;;17.68;30.53
22651;BME280;11492;42.646;23.400;2023-04-27T11:17:09;94861.47;;;17.21;30.46
22651;BME280;11492;42.646;23.400;2023-04-27T11:19:45;94859.06;;;16.55;30.06
22651;BME280;11492;42.646;23.400;2023-04-27T11:22:14;94869.81;;;16.47;31.06
22651;BME280;11492;42.646;23.400;2023-04-27T11:24:48;94872.81;;;16.45;31.45
22651;BME280;11492;42.646;23.400;2023-04-27T11:27:14;94861.25;;;16.41;30.64
22651;BME280;11492;42.646;23.400;2023-04-27T11:29:39;94872.47;;;16.59;31.43
22651;BME280;11492;42.646;23.400;2023-04-27T11:32:05;94863.41;;;16.26;30.63
22651;BME280;11492;42.646;23.400;2023-04-27T11:34:31;94873.47;;;16.22;32.03
22651;BME280;11492;42.646;23.400;2023-04-27T11:37:05;94864.91;;;15.92;32.25
22651;BME280;11492;42.646;23.400;2023-04-27T11:39:35;94873.28;;;16.00;32.29
22651;BME280;11492;42.646;23.400;2023-04-27T11:42:34;94866.41;;;16.05;33.52
22651;BME280;11492;42.646;23.400;2023-04-27T11:45:04;94873.16;;;16.13;32.21
22651;BME280;11492;42.646;23.400;2023-04-27T11:47:33;94872.88;;;15.79;32.08
22651;BME280;11492;42.646;23.400;2023-04-27T11:50:04;94878.75;;;15.92;32.52
22651;BME280;11492;42.646;23.400;2023-04-27T11:52:31;94873.06;;;16.01;32.16
22651;BME280;11492;42.646;23.400;2023-04-27T11:54:59;94881.66;;;16.44;32.13
22651;BME280;11492;42.646;23.400;2023-04-27T11:57:26;94884.78;;;16.52;31.36
22651;BME280;11492;42.646;23.400;2023-04-27T11:59:53;94868.13;;;16.53;31.46
22651;BME280;11492;42.646;23.400;2023-04-27T12:02:22;94877.59;;;16.83;32.18
22651;BME280;11492;42.646;23.400;2023-04-27T12:04:50;94885.13;;;16.91;31.83
22651;BME280;11492;42.646;23.400;2023-04-27T12:07:16;94884.69;;;16.76;31.33
22651;BME280;11492;42.646;23.400;2023-04-27T12:09:42;94882.94;;;16.35;32.13
22651;BME280;11492;42.646;23.400;2023-04-27T12:12:08;94889.78;;;16.53;31.47
22651;BME280;11492;42.646;23.400;2023-04-27T12:14:34;94885.13;;;16.38;31.56
22651;BME280;11492;42.646;23.400;2023-04-27T12:16:59;94889.34;;;16.39;32.05
22651;BME280;11492;42.646;23.400;2023-04-27T12:19:25;94889.19;;;16.16;32.62
22651;BME280;11492;42.646;23.400;2023-04-27T12:21:51;94885.13;;;15.96;32.77
22651;BME280;11492;42.646;23.400;2023-04-27T12:24:17;94893.72;;;15.96;32.43
22651;BME280;11492;42.646;23.400;2023-04-27T12:26:43;94891.28;;;16.01;32.65
22651;BME280;11492;42.646;23.400;2023-04-27T12:29:08;94894.56;;;15.67;32.54
22651;BME280;11492;42.646;23.400;2023-04-27T12:31:34;94886.34;;;15.70;32.83
22651;BME280;11492;42.646;23.400;2023-04-27T12:34:00;94884.91;;;15.49;33.60
22651;BME280;11492;42.646;23.400;2023-04-27T12:36:25;94894.06;;;15.52;33.17
22651;BME280;11492;42.646;23.400;2023-04-27T12:38:53;94894.75;;;15.11;33.09
22651;BME280;11492;42.646;23.400;2023-04-27T12:41:18;94888.25;;;14.83;33.59
22651;BME280;11492;42.646;23.400;2023-04-27T12:43:43;94891.16;;;15.12;33.88
22651;BME280;11492;42.646;23.400;2023-04-27T12:46:10;94889.53;;;15.17;32.88
22651;BME280;11492;42.646;23.400;2023-04-27T12:48:35;94874.09;;;15.22;33.43
22651;BME280;11492;42.646;23.400;2023-04-27T12:51:01;94891.28;;;15.53;33.53
22651;BME280;11492;42.646;23.400;2023-04-27T12:53:27;94889.25;;;15.55;32.81
22651;BME280;11492;42.646;23.400;2023-04-27T12:55:52;94895.13;;;15.75;33.69
22651;BME280;11492;42.646;23.400;2023-04-27T12:58:18;94900.81;;;15.90;33.04
22651;BME280;11492;42.646;23.400;2023-04-27T13:00:43;94871.72;;;15.14;32.84